LJC4 EGPH-EGNS
Flight info
| Callsign | LJC4 |
|---|---|
| Flight time | 1h 6m |
| Altitude | 7000 |
| Route | TLA N864 DCS/N0145F060 DCT IOM |
| Aircraft | C208/L-SDF/C |
Departure
| Time | 2026-04-23 20:02 |
|---|---|
| Airport | Edinburgh Airport (EGPH) |
Arrival
| Time | 2026-04-23 21:08 |
|---|---|
| Airport | Isle of Man Airport (EGNS) |
| Time | Latitude | Longitude | Altitude | Speed | Heading |
|---|---|---|---|---|---|
| 2026-04-23 19:45 | 55.94740 | -3.34615 | 113 ft | 0 kts | 148° |
| 2026-04-23 19:54 | 55.94751 | -3.34633 | 115 ft | 12 kts | 351° |
| 2026-04-23 19:54 | 55.94763 | -3.34791 | 115 ft | 13 kts | 301° |
| 2026-04-23 19:54 | 55.94825 | -3.34945 | 115 ft | 20 kts | 298° |
| 2026-04-23 19:55 | 55.94910 | -3.35221 | 115 ft | 24 kts | 301° |
| 2026-04-23 19:55 | 55.94991 | -3.35482 | 114 ft | 26 kts | 298° |
| 2026-04-23 19:55 | 55.95084 | -3.35772 | 113 ft | 24 kts | 311° |
| 2026-04-23 19:55 | 55.95143 | -3.35918 | 113 ft | 9 kts | 326° |
| 2026-04-23 19:56 | 55.95208 | -3.35998 | 115 ft | 16 kts | 305° |
| 2026-04-23 19:56 | 55.95146 | -3.36247 | 114 ft | 30 kts | 240° |
| 2026-04-23 19:56 | 55.95014 | -3.36639 | 114 ft | 43 kts | 239° |
| 2026-04-23 19:56 | 55.94860 | -3.37088 | 113 ft | 40 kts | 239° |
| 2026-04-23 19:57 | 55.94726 | -3.37487 | 114 ft | 36 kts | 239° |
| 2026-04-23 19:57 | 55.94604 | -3.37846 | 114 ft | 25 kts | 237° |
| 2026-04-23 19:57 | 55.94627 | -3.37986 | 114 ft | 0 kts | 330° |
| 2026-04-23 20:00 | 55.94668 | -3.38030 | 113 ft | 16 kts | 328° |
| 2026-04-23 20:00 | 55.94739 | -3.38017 | 113 ft | 0 kts | 58° |
| 2026-04-23 20:01 | 55.94796 | -3.37853 | 114 ft | 45 kts | 58° |
| 2026-04-23 20:01 | 55.95047 | -3.37100 | 135 ft | 88 kts | 60° |
| 2026-04-23 20:01 | 55.95383 | -3.36069 | 288 ft | 99 kts | 61° |
| 2026-04-23 20:02 | 55.95709 | -3.34956 | 458 ft | 105 kts | 65° |
| 2026-04-23 20:02 | 55.96050 | -3.33774 | 624 ft | 107 kts | 51° |
| 2026-04-23 20:02 | 55.96604 | -3.32937 | 839 ft | 104 kts | 43° |
| 2026-04-23 20:02 | 55.97150 | -3.32066 | 1028 ft | 105 kts | 42° |
| 2026-04-23 20:03 | 55.97598 | -3.31019 | 1181 ft | 108 kts | 61° |
| 2026-04-23 20:03 | 55.97983 | -3.29853 | 1350 ft | 109 kts | 60° |
| 2026-04-23 20:03 | 55.98333 | -3.28650 | 1514 ft | 110 kts | 62° |
| 2026-04-23 20:03 | 55.98772 | -3.27442 | 1552 ft | 117 kts | 58° |
| 2026-04-23 20:04 | 55.99251 | -3.26265 | 1649 ft | 121 kts | 39° |
| 2026-04-23 20:04 | 56.00061 | -3.25873 | 1753 ft | 126 kts | 9° |
| 2026-04-23 20:04 | 56.00859 | -3.25284 | 1872 ft | 126 kts | 41° |
| 2026-04-23 20:04 | 56.01550 | -3.24306 | 2002 ft | 127 kts | 37° |
| 2026-04-23 20:05 | 56.02269 | -3.23423 | 2200 ft | 124 kts | 37° |
| 2026-04-23 20:05 | 56.02982 | -3.22559 | 2396 ft | 123 kts | 36° |
| 2026-04-23 20:05 | 56.03689 | -3.21711 | 2585 ft | 122 kts | 36° |
| 2026-04-23 20:05 | 56.04363 | -3.20800 | 2778 ft | 121 kts | 53° |
| 2026-04-23 20:06 | 56.04559 | -3.19388 | 2974 ft | 119 kts | 97° |
| 2026-04-23 20:06 | 56.04462 | -3.17918 | 3177 ft | 119 kts | 98° |
| 2026-04-23 20:06 | 56.04377 | -3.16432 | 3378 ft | 120 kts | 98° |
| 2026-04-23 20:06 | 56.04290 | -3.14954 | 3577 ft | 119 kts | 98° |
| 2026-04-23 20:07 | 56.04202 | -3.13476 | 3776 ft | 120 kts | 98° |
| 2026-04-23 20:07 | 56.04108 | -3.12010 | 3971 ft | 120 kts | 98° |
| 2026-04-23 20:07 | 56.04011 | -3.10524 | 4170 ft | 121 kts | 98° |
| 2026-04-23 20:07 | 56.03910 | -3.09028 | 4369 ft | 121 kts | 99° |
| 2026-04-23 20:08 | 56.03561 | -3.07700 | 4565 ft | 120 kts | 137° |
| 2026-04-23 20:08 | 56.02898 | -3.06794 | 4771 ft | 120 kts | 144° |
| 2026-04-23 20:08 | 56.02245 | -3.05872 | 4969 ft | 119 kts | 144° |
| 2026-04-23 20:08 | 56.01592 | -3.04958 | 5167 ft | 120 kts | 144° |
| 2026-04-23 20:09 | 56.00933 | -3.04037 | 5367 ft | 120 kts | 144° |
| 2026-04-23 20:09 | 56.00276 | -3.03118 | 5565 ft | 120 kts | 144° |
| 2026-04-23 20:09 | 55.99617 | -3.02197 | 5763 ft | 120 kts | 144° |
| 2026-04-23 20:09 | 55.98956 | -3.01275 | 5967 ft | 120 kts | 143° |
| 2026-04-23 20:10 | 55.98517 | -3.00663 | 6097 ft | 120 kts | 143° |
| 2026-04-23 20:10 | 55.97526 | -2.99868 | 6359 ft | 118 kts | 174° |
| 2026-04-23 20:10 | 55.96716 | -2.99599 | 6560 ft | 118 kts | 169° |
| 2026-04-23 20:10 | 55.95912 | -2.99307 | 6758 ft | 118 kts | 170° |
| 2026-04-23 20:11 | 55.95110 | -2.99390 | 6949 ft | 117 kts | 206° |
| 2026-04-23 20:11 | 55.94350 | -3.00051 | 7002 ft | 128 kts | 205° |
| 2026-04-23 20:11 | 55.93506 | -3.00716 | 7014 ft | 137 kts | 205° |
| 2026-04-23 20:11 | 55.92611 | -3.01436 | 7010 ft | 143 kts | 205° |
| 2026-04-23 20:12 | 55.91702 | -3.02167 | 7003 ft | 146 kts | 205° |
| 2026-04-23 20:12 | 55.90771 | -3.02915 | 7000 ft | 147 kts | 205° |
| 2026-04-23 20:12 | 55.89831 | -3.03664 | 7006 ft | 148 kts | 205° |
| 2026-04-23 20:12 | 55.88892 | -3.04420 | 7001 ft | 148 kts | 205° |
| 2026-04-23 20:13 | 55.87949 | -3.05175 | 7003 ft | 148 kts | 205° |
| 2026-04-23 20:13 | 55.87005 | -3.05929 | 7006 ft | 148 kts | 205° |
| 2026-04-23 20:13 | 55.86063 | -3.06685 | 7002 ft | 148 kts | 205° |
| 2026-04-23 20:13 | 55.85121 | -3.07439 | 7004 ft | 148 kts | 205° |
| 2026-04-23 20:14 | 55.84178 | -3.08192 | 7005 ft | 149 kts | 205° |
| 2026-04-23 20:14 | 55.83235 | -3.08948 | 7005 ft | 149 kts | 205° |
| 2026-04-23 20:14 | 55.82290 | -3.09702 | 7003 ft | 149 kts | 205° |
| 2026-04-23 20:14 | 55.81360 | -3.10445 | 7002 ft | 148 kts | 205° |
| 2026-04-23 20:15 | 55.80421 | -3.11195 | 7003 ft | 148 kts | 205° |
| 2026-04-23 20:15 | 55.79480 | -3.11943 | 6998 ft | 148 kts | 205° |
| 2026-04-23 20:15 | 55.78540 | -3.12695 | 6995 ft | 148 kts | 205° |
| 2026-04-23 20:15 | 55.77598 | -3.13444 | 7000 ft | 148 kts | 205° |
| 2026-04-23 20:16 | 55.76658 | -3.14193 | 6996 ft | 148 kts | 205° |
| 2026-04-23 20:16 | 55.75719 | -3.14941 | 6996 ft | 148 kts | 205° |
| 2026-04-23 20:16 | 55.74779 | -3.15688 | 6994 ft | 148 kts | 205° |
| 2026-04-23 20:16 | 55.73842 | -3.16433 | 6998 ft | 148 kts | 205° |
| 2026-04-23 20:17 | 55.72894 | -3.17187 | 6997 ft | 149 kts | 205° |
| 2026-04-23 20:17 | 55.71952 | -3.17935 | 6999 ft | 148 kts | 205° |
| 2026-04-23 20:17 | 55.71007 | -3.18685 | 7000 ft | 148 kts | 205° |
| 2026-04-23 20:17 | 55.70076 | -3.19423 | 6997 ft | 148 kts | 205° |
| 2026-04-23 20:18 | 55.69135 | -3.20170 | 6996 ft | 148 kts | 205° |
| 2026-04-23 20:18 | 55.68194 | -3.20918 | 6995 ft | 148 kts | 205° |
| 2026-04-23 20:18 | 55.67255 | -3.21664 | 6997 ft | 148 kts | 205° |
| 2026-04-23 20:18 | 55.66316 | -3.22406 | 6998 ft | 147 kts | 205° |
| 2026-04-23 20:19 | 55.65404 | -3.23123 | 7126 ft | 141 kts | 205° |
| 2026-04-23 20:19 | 55.64519 | -3.23817 | 7243 ft | 138 kts | 205° |
| 2026-04-23 20:19 | 55.63647 | -3.24506 | 7360 ft | 137 kts | 205° |
| 2026-04-23 20:19 | 55.62779 | -3.25198 | 7447 ft | 138 kts | 205° |
| 2026-04-23 20:20 | 55.61882 | -3.25909 | 7445 ft | 143 kts | 205° |
| 2026-04-23 20:20 | 55.60970 | -3.26629 | 7450 ft | 145 kts | 205° |
| 2026-04-23 20:20 | 55.60046 | -3.27358 | 7451 ft | 147 kts | 205° |
| 2026-04-23 20:20 | 55.59107 | -3.28098 | 7452 ft | 148 kts | 205° |
| 2026-04-23 20:21 | 55.58163 | -3.28842 | 7452 ft | 149 kts | 205° |
| 2026-04-23 20:21 | 55.57215 | -3.29588 | 7451 ft | 149 kts | 205° |
| 2026-04-23 20:21 | 55.56267 | -3.30334 | 7450 ft | 149 kts | 205° |
| 2026-04-23 20:21 | 55.55327 | -3.31072 | 7450 ft | 149 kts | 205° |
| 2026-04-23 20:22 | 55.54366 | -3.31828 | 7450 ft | 149 kts | 205° |
| 2026-04-23 20:22 | 55.53429 | -3.32565 | 7451 ft | 150 kts | 205° |
| 2026-04-23 20:22 | 55.52475 | -3.33314 | 7450 ft | 150 kts | 205° |
| 2026-04-23 20:22 | 55.51521 | -3.34063 | 7450 ft | 150 kts | 205° |
| 2026-04-23 20:23 | 55.50568 | -3.34812 | 7449 ft | 150 kts | 205° |
| 2026-04-23 20:23 | 55.49578 | -3.35349 | 7440 ft | 150 kts | 183° |
| 2026-04-23 20:23 | 55.48532 | -3.35292 | 7441 ft | 150 kts | 180° |
| 2026-04-23 20:23 | 55.47488 | -3.35280 | 7442 ft | 150 kts | 181° |
| 2026-04-23 20:24 | 55.46795 | -3.35272 | 7443 ft | 150 kts | 181° |
| 2026-04-23 20:24 | 55.45749 | -3.35260 | 7442 ft | 150 kts | 180° |
| 2026-04-23 20:24 | 55.44704 | -3.35244 | 7443 ft | 151 kts | 180° |
| 2026-04-23 20:24 | 55.43654 | -3.35227 | 7442 ft | 151 kts | 180° |
| 2026-04-23 20:25 | 55.42267 | -3.35206 | 7442 ft | 151 kts | 180° |
| 2026-04-23 20:25 | 55.41219 | -3.35188 | 7441 ft | 151 kts | 180° |
| 2026-04-23 20:25 | 55.40511 | -3.35176 | 7440 ft | 150 kts | 180° |
| 2026-04-23 20:25 | 55.39131 | -3.35156 | 7441 ft | 150 kts | 180° |
| 2026-04-23 20:26 | 55.38424 | -3.35146 | 7441 ft | 150 kts | 181° |
| 2026-04-23 20:26 | 55.37377 | -3.35131 | 7439 ft | 150 kts | 180° |
| 2026-04-23 20:26 | 55.36332 | -3.35112 | 7439 ft | 150 kts | 180° |
| 2026-04-23 20:26 | 55.35286 | -3.35099 | 7440 ft | 150 kts | 180° |
| 2026-04-23 20:27 | 55.34239 | -3.35080 | 7442 ft | 150 kts | 180° |
| 2026-04-23 20:27 | 55.33192 | -3.35065 | 7439 ft | 150 kts | 180° |
| 2026-04-23 20:27 | 55.32143 | -3.35049 | 7439 ft | 150 kts | 180° |
| 2026-04-23 20:27 | 55.31110 | -3.35032 | 7438 ft | 150 kts | 180° |
| 2026-04-23 20:28 | 55.30064 | -3.35015 | 7437 ft | 150 kts | 180° |
| 2026-04-23 20:28 | 55.29018 | -3.34998 | 7439 ft | 150 kts | 180° |
| 2026-04-23 20:28 | 55.27974 | -3.34981 | 7439 ft | 150 kts | 180° |
| 2026-04-23 20:28 | 55.26924 | -3.34965 | 7440 ft | 151 kts | 180° |
| 2026-04-23 20:29 | 55.25879 | -3.34948 | 7436 ft | 151 kts | 180° |
| 2026-04-23 20:29 | 55.24830 | -3.34932 | 7436 ft | 150 kts | 180° |
| 2026-04-23 20:29 | 55.23783 | -3.34915 | 7439 ft | 151 kts | 180° |
| 2026-04-23 20:29 | 55.22737 | -3.34898 | 7435 ft | 150 kts | 180° |
| 2026-04-23 20:30 | 55.21690 | -3.34881 | 7436 ft | 150 kts | 180° |
| 2026-04-23 20:30 | 55.19597 | -3.34848 | 7433 ft | 150 kts | 180° |
| 2026-04-23 20:30 | 55.18558 | -3.34830 | 7431 ft | 149 kts | 180° |
| 2026-04-23 20:31 | 55.17517 | -3.34814 | 7430 ft | 149 kts | 180° |
| 2026-04-23 20:31 | 55.16477 | -3.34798 | 7430 ft | 150 kts | 180° |
| 2026-04-23 20:31 | 55.15432 | -3.34782 | 7433 ft | 150 kts | 180° |
| 2026-04-23 20:31 | 55.14406 | -3.34765 | 7429 ft | 149 kts | 180° |
| 2026-04-23 20:32 | 55.13356 | -3.34747 | 7428 ft | 149 kts | 180° |
| 2026-04-23 20:32 | 55.12335 | -3.34731 | 7427 ft | 149 kts | 180° |
| 2026-04-23 20:32 | 55.11299 | -3.34715 | 7426 ft | 149 kts | 180° |
| 2026-04-23 20:32 | 55.10265 | -3.34700 | 7426 ft | 149 kts | 180° |
| 2026-04-23 20:33 | 55.09223 | -3.34683 | 7427 ft | 149 kts | 180° |
| 2026-04-23 20:33 | 55.08185 | -3.34667 | 7427 ft | 150 kts | 180° |
| 2026-04-23 20:33 | 55.07143 | -3.34651 | 7427 ft | 150 kts | 180° |
| 2026-04-23 20:33 | 55.06102 | -3.34634 | 7427 ft | 150 kts | 180° |
| 2026-04-23 20:34 | 55.05057 | -3.34618 | 7424 ft | 149 kts | 180° |
| 2026-04-23 20:34 | 55.04019 | -3.34601 | 7424 ft | 149 kts | 180° |
| 2026-04-23 20:34 | 55.02985 | -3.34584 | 7423 ft | 148 kts | 180° |
| 2026-04-23 20:34 | 55.01955 | -3.34567 | 7423 ft | 149 kts | 180° |
| 2026-04-23 20:35 | 55.00918 | -3.34552 | 7423 ft | 149 kts | 180° |
| 2026-04-23 20:35 | 54.99879 | -3.34536 | 7420 ft | 149 kts | 180° |
| 2026-04-23 20:35 | 54.98839 | -3.34521 | 7423 ft | 149 kts | 180° |
| 2026-04-23 20:35 | 54.97801 | -3.34497 | 7422 ft | 148 kts | 180° |
| 2026-04-23 20:36 | 54.96767 | -3.34480 | 7420 ft | 148 kts | 180° |
| 2026-04-23 20:36 | 54.95751 | -3.34469 | 7420 ft | 148 kts | 180° |
| 2026-04-23 20:36 | 54.94718 | -3.34453 | 7414 ft | 148 kts | 180° |
| 2026-04-23 20:36 | 54.93687 | -3.34438 | 7418 ft | 148 kts | 180° |
| 2026-04-23 20:37 | 54.92657 | -3.34427 | 7414 ft | 148 kts | 180° |
| 2026-04-23 20:37 | 54.91632 | -3.34409 | 7417 ft | 148 kts | 180° |
| 2026-04-23 20:37 | 54.90598 | -3.34390 | 7417 ft | 148 kts | 180° |
| 2026-04-23 20:37 | 54.89569 | -3.34374 | 7416 ft | 148 kts | 180° |
| 2026-04-23 20:38 | 54.88542 | -3.34358 | 7416 ft | 148 kts | 180° |
| 2026-04-23 20:38 | 54.87513 | -3.34339 | 7413 ft | 148 kts | 180° |
| 2026-04-23 20:38 | 54.86485 | -3.34323 | 7414 ft | 148 kts | 180° |
| 2026-04-23 20:38 | 54.85451 | -3.34308 | 7416 ft | 148 kts | 180° |
| 2026-04-23 20:39 | 54.84419 | -3.34297 | 7416 ft | 148 kts | 180° |
| 2026-04-23 20:39 | 54.83402 | -3.34280 | 7415 ft | 148 kts | 180° |
| 2026-04-23 20:39 | 54.82374 | -3.34265 | 7415 ft | 148 kts | 180° |
| 2026-04-23 20:39 | 54.81345 | -3.34246 | 7416 ft | 148 kts | 180° |
| 2026-04-23 20:40 | 54.80319 | -3.34230 | 7415 ft | 147 kts | 180° |
| 2026-04-23 20:40 | 54.79295 | -3.34215 | 7415 ft | 147 kts | 180° |
| 2026-04-23 20:40 | 54.78266 | -3.34199 | 7416 ft | 148 kts | 180° |
| 2026-04-23 20:40 | 54.77231 | -3.34186 | 7417 ft | 149 kts | 180° |
| 2026-04-23 20:41 | 54.76194 | -3.34165 | 7417 ft | 149 kts | 180° |
| 2026-04-23 20:41 | 54.75159 | -3.34146 | 7416 ft | 148 kts | 180° |
| 2026-04-23 20:41 | 54.74140 | -3.34136 | 7416 ft | 149 kts | 180° |
| 2026-04-23 20:41 | 54.73104 | -3.34126 | 7417 ft | 149 kts | 181° |
| 2026-04-23 20:42 | 54.72124 | -3.34612 | 7415 ft | 149 kts | 212° |
| 2026-04-23 20:42 | 54.71397 | -3.35880 | 7417 ft | 150 kts | 233° |
| 2026-04-23 20:42 | 54.70768 | -3.37320 | 7421 ft | 150 kts | 232° |
| 2026-04-23 20:42 | 54.70126 | -3.38749 | 7423 ft | 150 kts | 232° |
| 2026-04-23 20:43 | 54.69486 | -3.40174 | 7421 ft | 150 kts | 232° |
| 2026-04-23 20:43 | 54.68843 | -3.41605 | 7413 ft | 151 kts | 231° |
| 2026-04-23 20:43 | 54.68201 | -3.43038 | 7407 ft | 151 kts | 232° |
| 2026-04-23 20:43 | 54.67566 | -3.44450 | 7412 ft | 150 kts | 231° |
| 2026-04-23 20:44 | 54.66929 | -3.45870 | 7411 ft | 150 kts | 232° |
| 2026-04-23 20:44 | 54.66288 | -3.47294 | 7411 ft | 150 kts | 231° |
| 2026-04-23 20:44 | 54.65647 | -3.48718 | 7411 ft | 150 kts | 231° |
| 2026-04-23 20:44 | 54.65008 | -3.50141 | 7411 ft | 150 kts | 231° |
| 2026-04-23 20:45 | 54.64366 | -3.51567 | 7410 ft | 150 kts | 231° |
| 2026-04-23 20:45 | 54.63727 | -3.52982 | 7409 ft | 149 kts | 231° |
| 2026-04-23 20:45 | 54.63091 | -3.54392 | 7408 ft | 149 kts | 231° |
| 2026-04-23 20:45 | 54.62453 | -3.55808 | 7407 ft | 150 kts | 231° |
| 2026-04-23 20:46 | 54.61814 | -3.57227 | 7406 ft | 149 kts | 231° |
| 2026-04-23 20:46 | 54.61175 | -3.58640 | 7405 ft | 150 kts | 231° |
| 2026-04-23 20:46 | 54.60524 | -3.60090 | 7414 ft | 157 kts | 231° |
| 2026-04-23 20:46 | 54.59850 | -3.61591 | 7414 ft | 160 kts | 231° |
| 2026-04-23 20:47 | 54.59165 | -3.63109 | 7414 ft | 158 kts | 231° |
| 2026-04-23 20:47 | 54.58480 | -3.64620 | 7412 ft | 161 kts | 231° |
| 2026-04-23 20:47 | 54.57792 | -3.66140 | 7415 ft | 164 kts | 231° |
| 2026-04-23 20:47 | 54.57095 | -3.67680 | 7411 ft | 162 kts | 231° |
| 2026-04-23 20:48 | 54.56394 | -3.69230 | 7410 ft | 162 kts | 231° |
| 2026-04-23 20:48 | 54.55716 | -3.70704 | 7397 ft | 157 kts | 231° |
| 2026-04-23 20:48 | 54.55050 | -3.72168 | 7390 ft | 154 kts | 231° |
| 2026-04-23 20:48 | 54.54395 | -3.73612 | 7388 ft | 151 kts | 231° |
| 2026-04-23 20:49 | 54.53750 | -3.75028 | 7386 ft | 150 kts | 231° |
| 2026-04-23 20:49 | 54.53106 | -3.76444 | 7386 ft | 150 kts | 231° |
| 2026-04-23 20:49 | 54.52463 | -3.77859 | 7388 ft | 150 kts | 231° |
| 2026-04-23 20:49 | 54.51817 | -3.79276 | 7387 ft | 150 kts | 230° |
| 2026-04-23 20:50 | 54.51172 | -3.80689 | 7386 ft | 150 kts | 231° |
| 2026-04-23 20:50 | 54.50530 | -3.82102 | 7387 ft | 149 kts | 230° |
| 2026-04-23 20:50 | 54.49888 | -3.83505 | 7388 ft | 148 kts | 230° |
| 2026-04-23 20:50 | 54.49250 | -3.84897 | 7387 ft | 149 kts | 230° |
| 2026-04-23 20:51 | 54.48616 | -3.86285 | 7387 ft | 150 kts | 230° |
| 2026-04-23 20:51 | 54.47973 | -3.87692 | 7388 ft | 150 kts | 230° |
| 2026-04-23 20:51 | 54.47330 | -3.89102 | 7388 ft | 150 kts | 230° |
| 2026-04-23 20:51 | 54.46687 | -3.90507 | 7386 ft | 149 kts | 230° |
| 2026-04-23 20:52 | 54.46044 | -3.91909 | 7388 ft | 149 kts | 230° |
| 2026-04-23 20:52 | 54.45405 | -3.93306 | 7387 ft | 149 kts | 230° |
| 2026-04-23 20:52 | 54.44763 | -3.94704 | 7386 ft | 149 kts | 230° |
| 2026-04-23 20:52 | 54.44123 | -3.96101 | 7387 ft | 149 kts | 230° |
| 2026-04-23 20:53 | 54.43483 | -3.97496 | 7387 ft | 148 kts | 230° |
| 2026-04-23 20:53 | 54.42844 | -3.98887 | 7387 ft | 149 kts | 230° |
| 2026-04-23 20:53 | 54.42203 | -4.00285 | 7388 ft | 149 kts | 230° |
| 2026-04-23 20:53 | 54.41558 | -4.01692 | 7389 ft | 150 kts | 230° |
| 2026-04-23 20:54 | 54.40911 | -4.03101 | 7389 ft | 149 kts | 230° |
| 2026-04-23 20:54 | 54.40268 | -4.04497 | 7388 ft | 149 kts | 230° |
| 2026-04-23 20:54 | 54.39634 | -4.05864 | 7386 ft | 148 kts | 230° |
| 2026-04-23 20:54 | 54.39000 | -4.07246 | 7385 ft | 147 kts | 230° |
| 2026-04-23 20:55 | 54.38363 | -4.08631 | 7385 ft | 148 kts | 230° |
| 2026-04-23 20:55 | 54.37726 | -4.10012 | 7385 ft | 148 kts | 230° |
| 2026-04-23 20:55 | 54.37087 | -4.11401 | 7385 ft | 148 kts | 230° |
| 2026-04-23 20:55 | 54.36447 | -4.12785 | 7384 ft | 148 kts | 230° |
| 2026-04-23 20:56 | 54.35809 | -4.14171 | 7385 ft | 149 kts | 230° |
| 2026-04-23 20:56 | 54.35163 | -4.15567 | 7385 ft | 149 kts | 230° |
| 2026-04-23 20:56 | 54.34522 | -4.16951 | 7385 ft | 149 kts | 230° |
| 2026-04-23 20:56 | 54.33879 | -4.18344 | 7385 ft | 149 kts | 230° |
| 2026-04-23 20:57 | 54.33234 | -4.19738 | 7386 ft | 149 kts | 230° |
| 2026-04-23 20:57 | 54.32584 | -4.21142 | 7386 ft | 150 kts | 230° |
| 2026-04-23 20:57 | 54.31937 | -4.22538 | 7386 ft | 150 kts | 230° |
| 2026-04-23 20:57 | 54.31287 | -4.23940 | 7388 ft | 151 kts | 230° |
| 2026-04-23 20:58 | 54.30633 | -4.25348 | 7389 ft | 151 kts | 230° |
| 2026-04-23 20:58 | 54.29981 | -4.26753 | 7383 ft | 150 kts | 230° |
| 2026-04-23 20:58 | 54.29339 | -4.28137 | 7382 ft | 150 kts | 230° |
| 2026-04-23 20:58 | 54.28692 | -4.29528 | 7381 ft | 149 kts | 230° |
| 2026-04-23 20:59 | 54.28044 | -4.30921 | 7379 ft | 149 kts | 230° |
| 2026-04-23 20:59 | 54.27402 | -4.32303 | 7377 ft | 148 kts | 230° |
| 2026-04-23 20:59 | 54.26758 | -4.33687 | 7378 ft | 149 kts | 230° |
| 2026-04-23 20:59 | 54.26107 | -4.35083 | 7379 ft | 149 kts | 230° |
| 2026-04-23 21:00 | 54.25448 | -4.36502 | 7272 ft | 155 kts | 230° |
| 2026-04-23 21:00 | 54.24768 | -4.37958 | 7151 ft | 158 kts | 230° |
| 2026-04-23 21:00 | 54.24081 | -4.39431 | 7031 ft | 159 kts | 230° |
| 2026-04-23 21:00 | 54.23389 | -4.40915 | 6916 ft | 160 kts | 230° |
| 2026-04-23 21:01 | 54.22696 | -4.42399 | 6785 ft | 160 kts | 229° |
| 2026-04-23 21:01 | 54.22003 | -4.43882 | 6662 ft | 159 kts | 229° |
| 2026-04-23 21:01 | 54.21312 | -4.45359 | 6538 ft | 159 kts | 229° |
| 2026-04-23 21:01 | 54.20628 | -4.46821 | 6415 ft | 160 kts | 229° |
| 2026-04-23 21:02 | 54.19933 | -4.48306 | 6291 ft | 160 kts | 229° |
| 2026-04-23 21:02 | 54.19238 | -4.49789 | 6166 ft | 159 kts | 229° |
| 2026-04-23 21:02 | 54.18546 | -4.51267 | 6040 ft | 159 kts | 229° |
| 2026-04-23 21:02 | 54.17855 | -4.52739 | 5914 ft | 159 kts | 229° |
| 2026-04-23 21:03 | 54.17163 | -4.54214 | 5789 ft | 159 kts | 229° |
| 2026-04-23 21:03 | 54.16472 | -4.55687 | 5663 ft | 159 kts | 229° |
| 2026-04-23 21:03 | 54.15782 | -4.57154 | 5537 ft | 158 kts | 229° |
| 2026-04-23 21:03 | 54.15092 | -4.58621 | 5412 ft | 158 kts | 229° |
| 2026-04-23 21:04 | 54.14401 | -4.60091 | 5286 ft | 158 kts | 229° |
| 2026-04-23 21:04 | 54.13804 | -4.61542 | 4952 ft | 147 kts | 238° |
| 2026-04-23 21:04 | 54.13338 | -4.63145 | 4333 ft | 149 kts | 243° |
| 2026-04-23 21:04 | 54.12972 | -4.64630 | 4026 ft | 131 kts | 244° |
| 2026-04-23 21:05 | 54.12645 | -4.66056 | 3598 ft | 129 kts | 243° |
| 2026-04-23 21:05 | 54.12333 | -4.67454 | 3257 ft | 124 kts | 246° |
| 2026-04-23 21:05 | 54.12031 | -4.68899 | 2769 ft | 130 kts | 247° |
| 2026-04-23 21:05 | 54.11711 | -4.70310 | 2537 ft | 123 kts | 233° |
| 2026-04-23 21:06 | 54.11091 | -4.71365 | 2071 ft | 131 kts | 208° |
| 2026-04-23 21:06 | 54.10265 | -4.71635 | 1838 ft | 116 kts | 161° |
| 2026-04-23 21:06 | 54.09469 | -4.71314 | 1534 ft | 122 kts | 163° |
| 2026-04-23 21:06 | 54.08675 | -4.70852 | 1382 ft | 118 kts | 144° |
| 2026-04-23 21:07 | 54.08088 | -4.69924 | 1167 ft | 115 kts | 119° |
| 2026-04-23 21:07 | 54.07760 | -4.68688 | 902 ft | 116 kts | 100° |
| 2026-04-23 21:07 | 54.07707 | -4.67330 | 631 ft | 116 kts | 82° |
| 2026-04-23 21:07 | 54.07862 | -4.65990 | 382 ft | 113 kts | 77° |
| 2026-04-23 21:08 | 54.08020 | -4.64817 | 205 ft | 96 kts | 76° |
| 2026-04-23 21:08 | 54.08158 | -4.63725 | 89 ft | 93 kts | 76° |
| 2026-04-23 21:08 | 54.08287 | -4.62703 | 42 ft | 80 kts | 78° |
| 2026-04-23 21:08 | 54.08374 | -4.62008 | 39 ft | 42 kts | 79° |
| 2026-04-23 21:09 | 54.08384 | -4.61917 | 39 ft | 0 kts | 76° |